Time;durP1;ratioP1;P1;durP2;ratioP2;P2;SDS_P1;SDS_P2;PMS_P1;PMS_P2;Temp;Humidity;BMP_temperature;BMP_pressure;BME280_temperature;BME280_humidity;BME280_pressure;Samples;Min_cycle;Max_cycle;Signal;HPM_P1;HPM_P2
2023/06/14 00:02:16;;;;;;;3.70;3.40;;;19.00;45.30;;;;;;927441;152;27341;-74
2023/06/14 00:04:43;;;;;;;3.98;3.55;;;18.90;45.30;;;;;;926001;151;27374;-74
2023/06/14 00:07:09;;;;;;;4.10;3.70;;;18.90;45.30;;;;;;927661;151;27326;-74
2023/06/14 00:09:36;;;;;;;4.15;3.75;;;18.80;45.50;;;;;;925078;152;27512;-74
2023/06/14 00:12:03;;;;;;;3.40;3.10;;;18.80;45.50;;;;;;927692;152;27294;-74
2023/06/14 00:14:29;;;;;;;4.90;3.47;;;18.70;45.60;;;;;;926045;152;27305;-74
2023/06/14 00:16:59;;;;;;;3.83;3.08;;;18.60;45.70;;;;;;925339;152;27425;-74
2023/06/14 00:19:22;;;;;;;3.75;3.42;;;18.50;46.00;;;;;;926335;152;27343;-74
2023/06/14 00:21:50;;;;;;;4.45;3.60;;;18.50;46.10;;;;;;927588;152;27386;-74
2023/06/14 00:24:16;;;;;;;5.10;3.62;;;18.40;46.40;;;;;;925374;152;27410;-74
2023/06/14 00:26:42;;;;;;;4.05;3.65;;;18.40;46.60;;;;;;925542;151;27402;-74
2023/06/14 00:29:09;;;;;;;3.42;3.12;;;18.30;46.70;;;;;;927313;152;27392;-74
2023/06/14 00:31:35;;;;;;;3.70;3.40;;;18.20;47.00;;;;;;928797;151;27354;-74
2023/06/14 00:34:02;;;;;;;5.60;3.92;;;18.20;47.10;;;;;;926075;152;27460;-74
2023/06/14 00:36:28;;;;;;;5.37;3.75;;;18.10;47.30;;;;;;926448;151;27387;-74
2023/06/14 00:38:55;;;;;;;6.97;3.70;;;18.00;47.30;;;;;;927391;152;27382;-74
2023/06/14 00:41:22;;;;;;;6.80;4.37;;;17.90;47.40;;;;;;926210;151;27454;-74
2023/06/14 00:43:48;;;;;;;4.12;3.80;;;17.90;47.70;;;;;;930620;151;27322;-74
2023/06/14 00:46:15;;;;;;;4.20;3.90;;;17.80;47.90;;;;;;933666;151;27410;-74
2023/06/14 00:48:41;;;;;;;4.13;3.57;;;17.70;47.90;;;;;;930918;151;27464;-74
2023/06/14 00:51:08;;;;;;;5.05;3.98;;;17.70;48.20;;;;;;931591;151;27443;-74
2023/06/14 00:53:35;;;;;;;4.25;3.85;;;17.60;48.30;;;;;;933038;151;27411;-74
2023/06/14 00:56:01;;;;;;;4.08;3.67;;;17.60;48.30;;;;;;932249;151;27415;-74
2023/06/14 00:58:28;;;;;;;4.00;3.70;;;17.50;49.00;;;;;;905692;154;27463;-74
2023/06/14 01:00:54;;;;;;;5.80;3.77;;;17.50;48.60;;;;;;904994;154;27416;-74
2023/06/14 01:03:22;;;;;;;5.05;4.58;;;17.40;48.80;;;;;;905514;154;27464;-74
2023/06/14 01:05:48;;;;;;;4.30;3.90;;;17.40;49.10;;;;;;906064;154;27496;-74
2023/06/14 01:08:20;;;;;;;5.90;4.00;;;17.30;49.30;;;;;;919903;153;27489;-74
2023/06/14 01:10:53;;;;;;;4.27;3.90;;;17.30;49.40;;;;;;907044;154;27519;-74
2023/06/14 01:13:28;;;;;;;5.17;3.80;;;17.20;49.30;;;;;;932907;151;27316;-74
2023/06/14 01:15:55;;;;;;;4.00;3.70;;;17.20;49.50;;;;;;918035;153;27419;-74
2023/06/14 01:18:21;;;;;;;4.40;4.00;;;17.00;49.60;;;;;;932988;151;27376;-74
2023/06/14 01:20:50;;;;;;;4.30;3.90;;;17.00;49.80;;;;;;921016;152;27456;-74
2023/06/14 01:23:20;;;;;;;4.10;3.80;;;16.90;50.00;;;;;;936649;151;27444;-74
2023/06/14 01:25:46;;;;;;;4.13;3.80;;;16.90;50.10;;;;;;931033;151;27349;-74
2023/06/14 01:28:14;;;;;;;4.42;4.03;;;16.80;50.20;;;;;;935045;151;27504;-74
2023/06/14 01:30:44;;;;;;;4.23;3.77;;;16.70;50.30;;;;;;907012;154;27529;-74
2023/06/14 01:33:06;;;;;;;4.00;3.70;;;16.70;50.40;;;;;;907016;154;27461;-74
2023/06/14 01:35:33;;;;;;;4.23;3.90;;;16.60;50.60;;;;;;904547;154;27378;-74
2023/06/14 01:38:00;;;;;;;3.47;3.20;;;16.60;50.80;;;;;;905920;154;27415;-74
2023/06/14 01:40:26;;;;;;;4.80;3.63;;;16.60;50.80;;;;;;933849;151;27440;-74
2023/06/14 01:42:52;;;;;;;3.90;3.60;;;16.60;50.80;;;;;;934053;150;27378;-74
2023/06/14 01:45:19;;;;;;;3.80;3.50;;;16.50;50.80;;;;;;933076;150;27450;-74
2023/06/14 01:47:46;;;;;;;3.67;3.37;;;16.50;50.80;;;;;;935200;151;27455;-74
2023/06/14 01:50:12;;;;;;;4.23;3.50;;;16.50;50.90;;;;;;934027;151;27407;-74
2023/06/14 01:52:39;;;;;;;4.40;4.00;;;16.50;51.00;;;;;;934300;151;27443;-74
2023/06/14 01:55:05;;;;;;;4.23;3.43;;;16.50;51.00;;;;;;906653;154;27395;-74
2023/06/14 01:57:32;;;;;;;3.87;3.33;;;16.50;51.60;;;;;;906109;154;27524;-74
2023/06/14 01:59:59;;;;;;;5.37;3.77;;;16.50;51.00;;;;;;905070;154;27476;-74
2023/06/14 02:02:25;;;;;;;3.50;3.20;;;16.50;51.00;;;;;;905446;154;27411;-74
2023/06/14 02:04:52;;;;;;;5.00;2.90;;;16.50;51.10;;;;;;906467;154;27378;-74
2023/06/14 02:07:18;;;;;;;5.10;3.60;;;16.50;51.10;;;;;;906578;154;27407;-74
2023/06/14 02:09:45;;;;;;;3.93;3.63;;;16.50;51.20;;;;;;933390;151;27332;-74
2023/06/14 02:12:12;;;;;;;4.10;3.37;;;16.60;51.30;;;;;;933443;151;27474;-74
2023/06/14 02:14:38;;;;;;;3.83;3.30;;;16.60;51.20;;;;;;919087;153;27327;-74
2023/06/14 02:17:06;;;;;;;3.73;3.40;;;16.60;51.30;;;;;;935050;151;27468;-74
2023/06/14 02:19:31;;;;;;;3.50;3.10;;;16.60;51.30;;;;;;919509;153;27365;-74
2023/06/14 02:21:58;;;;;;;3.87;3.30;;;16.60;51.30;;;;;;923076;153;27352;-74
2023/06/14 02:24:24;;;;;;;4.33;3.00;;;16.60;51.30;;;;;;935516;151;27381;-74
2023/06/14 02:26:51;;;;;;;3.77;3.47;;;16.60;51.30;;;;;;933223;150;27461;-74
2023/06/14 02:29:18;;;;;;;4.63;3.53;;;16.60;51.30;;;;;;914129;154;27440;-74
2023/06/14 02:31:46;;;;;;;3.53;3.23;;;16.60;51.20;;;;;;935339;151;27414;-73
2023/06/14 02:34:11;;;;;;;5.30;3.10;;;16.60;51.30;;;;;;935436;151;27370;-74
2023/06/14 02:36:41;;;;;;;5.77;3.30;;;16.70;51.30;;;;;;931936;150;27381;-73
2023/06/14 02:39:07;;;;;;;4.07;3.43;;;16.70;51.40;;;;;;936002;151;27316;-74
2023/06/14 02:41:33;;;;;;;3.13;2.93;;;16.70;51.40;;;;;;938781;151;27367;-73
2023/06/14 02:44:00;;;;;;;3.73;3.43;;;16.70;51.40;;;;;;934863;151;27420;-74
2023/06/14 02:46:26;;;;;;;4.58;3.30;;;16.70;51.30;;;;;;930462;151;27429;-73
2023/06/14 02:48:53;;;;;;;3.77;3.47;;;16.70;50.80;;;;;;919751;152;27791;-74
2023/06/14 02:51:20;;;;;;;4.07;3.67;;;16.70;51.40;;;;;;915389;154;27477;-73
2023/06/14 02:53:46;;;;;;;3.95;3.25;;;16.70;51.30;;;;;;916667;154;27368;-74
2023/06/14 02:56:13;;;;;;;3.77;3.45;;;16.80;51.40;;;;;;916733;154;27374;-73
2023/06/14 02:58:40;;;;;;;3.67;3.23;;;16.80;51.50;;;;;;924152;152;27521;-74
2023/06/14 03:01:07;;;;;;;5.17;3.03;;;16.80;51.50;;;;;;891205;155;27367;-74
2023/06/14 03:03:33;;;;;;;3.62;3.33;;;16.80;51.40;;;;;;891593;155;27481;-74
2023/06/14 03:06:04;;;;;;;4.90;3.30;;;16.80;51.50;;;;;;892148;155;27387;-74
2023/06/14 03:08:28;;;;;;;3.65;3.35;;;16.80;51.50;;;;;;889776;155;27540;-74
2023/06/14 03:10:52;;;;;;;3.70;3.40;;;16.80;51.60;;;;;;891212;155;27406;-74
2023/06/14 03:13:22;;;;;;;4.90;3.50;;;16.80;51.50;;;;;;892547;155;27523;-74
2023/06/14 03:15:45;;;;;;;3.30;3.00;;;16.80;51.60;;;;;;917314;154;27432;-74
2023/06/14 03:18:12;;;;;;;4.57;3.10;;;16.80;51.60;;;;;;916812;154;27382;-74
2023/06/14 03:20:39;;;;;;;3.40;3.10;;;16.80;51.60;;;;;;919236;154;27308;-74
2023/06/14 03:23:06;;;;;;;5.03;3.15;;;16.80;51.70;;;;;;917422;154;27420;-74
2023/06/14 03:25:35;;;;;;;6.03;3.20;;;16.70;51.70;;;;;;915732;154;27474;-74
2023/06/14 03:27:58;;;;;;;3.50;3.20;;;16.70;51.60;;;;;;916386;154;27505;-74
2023/06/14 03:30:25;;;;;;;4.17;3.25;;;16.70;51.70;;;;;;916807;154;27415;-74
2023/06/14 03:32:55;;;;;;;3.73;2.90;;;16.70;51.90;;;;;;914917;154;27345;-74
2023/06/14 03:35:21;;;;;;;4.22;3.33;;;16.70;51.80;;;;;;918416;154;27350;-74
2023/06/14 03:37:48;;;;;;;3.60;3.30;;;16.80;52.10;;;;;;916906;153;27510;-74
2023/06/14 03:40:14;;;;;;;4.27;3.97;;;16.80;52.00;;;;;;915498;154;27411;-74
2023/06/14 03:42:41;;;;;;;3.37;2.80;;;16.80;52.00;;;;;;916331;154;27320;-74
2023/06/14 03:45:07;;;;;;;3.60;3.30;;;16.80;52.00;;;;;;915225;154;27413;-74
2023/06/14 03:47:34;;;;;;;5.00;3.00;;;16.80;52.00;;;;;;911110;152;27489;-74
2023/06/14 03:50:01;;;;;;;3.45;3.17;;;16.90;52.10;;;;;;893282;156;27492;-74
2023/06/14 03:52:27;;;;;;;5.78;3.67;;;16.90;52.10;;;;;;904837;155;27479;-75
2023/06/14 03:54:54;;;;;;;3.53;3.23;;;16.90;52.10;;;;;;923561;152;27705;-75
2023/06/14 03:57:21;;;;;;;3.52;3.22;;;17.00;52.10;;;;;;924563;152;27473;-75
2023/06/14 03:59:47;;;;;;;4.53;3.00;;;17.00;52.10;;;;;;920199;153;27450;-75
2023/06/14 04:02:17;;;;;;;3.72;3.20;;;17.00;52.10;;;;;;912018;154;27528;-75
2023/06/14 04:04:46;;;;;;;2.92;2.72;;;17.10;52.60;;;;;;912422;154;27329;-75
2023/06/14 04:07:10;;;;;;;3.72;3.42;;;17.10;52.20;;;;;;910919;154;27493;-75
2023/06/14 04:09:36;;;;;;;5.70;3.27;;;17.10;52.80;;;;;;925069;152;27432;-75
2023/06/14 04:12:03;;;;;;;5.95;2.90;;;17.20;52.20;;;;;;925461;152;27716;-75
2023/06/14 04:14:30;;;;;;;7.10;3.33;;;17.20;52.20;;;;;;924284;152;27339;-75
2023/06/14 04:16:56;;;;;;;3.40;3.10;;;17.30;52.30;;;;;;924217;152;27709;-75
2023/06/14 04:19:22;;;;;;;3.50;3.20;;;17.30;52.20;;;;;;914074;154;27464;-74
2023/06/14 04:21:50;;;;;;;3.42;3.10;;;17.40;52.30;;;;;;925455;152;27591;-74
2023/06/14 04:24:16;;;;;;;3.00;2.80;;;17.40;52.30;;;;;;926319;152;27463;-74
2023/06/14 04:26:45;;;;;;;6.20;3.30;;;17.50;52.30;;;;;;912108;154;27445;-74
2023/06/14 04:29:16;;;;;;;3.75;3.45;;;17.50;52.20;;;;;;924355;153;27380;-74
2023/06/14 04:31:38;;;;;;;3.80;2.98;;;17.60;52.20;;;;;;901830;156;27377;-74
2023/06/14 04:34:05;;;;;;;5.75;3.40;;;17.60;52.20;;;;;;923368;152;27362;-74
2023/06/14 04:36:34;;;;;;;4.45;3.17;;;17.70;52.20;;;;;;914607;154;27371;-74
2023/06/14 04:38:59;;;;;;;3.25;2.95;;;17.80;52.30;;;;;;913321;154;27414;-74
2023/06/14 04:41:30;;;;;;;3.55;3.25;;;17.90;52.30;;;;;;924225;152;27373;-74
2023/06/14 04:43:53;;;;;;;3.87;3.20;;;17.90;52.20;;;;;;890993;156;27599;-74
2023/06/14 04:46:18;;;;;;;4.08;3.08;;;18.00;52.30;;;;;;892910;156;27431;-74
2023/06/14 04:48:45;;;;;;;3.87;3.15;;;18.10;52.30;;;;;;903692;154;27497;-74
2023/06/14 04:51:11;;;;;;;5.00;2.98;;;18.20;52.20;;;;;;906010;154;27478;-74
2023/06/14 04:53:37;;;;;;;3.45;3.05;;;18.30;52.20;;;;;;904875;154;27391;-74
2023/06/14 04:56:04;;;;;;;3.27;2.95;;;18.40;52.10;;;;;;920630;153;28065;-75
2023/06/14 04:58:31;;;;;;;4.65;3.22;;;18.60;52.20;;;;;;941236;150;27442;-74
2023/06/14 05:00:59;;;;;;;4.15;3.12;;;18.80;52.50;;;;;;927528;152;27407;-74
2023/06/14 05:03:24;;;;;;;3.27;2.83;;;19.20;53.00;;;;;;936311;151;27321;-74
2023/06/14 05:05:53;;;;;;;4.53;2.70;;;19.60;53.20;;;;;;937343;151;27494;-74
2023/06/14 05:08:17;;;;;;;3.25;2.98;;;20.20;53.20;;;;;;937120;151;27423;-74
2023/06/14 05:10:44;;;;;;;3.75;3.08;;;20.80;53.00;;;;;;932784;151;27297;-74
2023/06/14 05:13:11;;;;;;;3.33;3.00;;;21.40;52.60;;;;;;921120;153;27359;-74
2023/06/14 05:15:37;;;;;;;3.30;2.83;;;22.10;52.00;;;;;;920897;153;27383;-75
2023/06/14 05:18:03;;;;;;;3.42;2.90;;;22.70;51.40;;;;;;935055;151;27438;-75
2023/06/14 05:20:30;;;;;;;4.37;2.90;;;23.40;50.70;;;;;;935538;151;27341;-75
2023/06/14 05:22:57;;;;;;;3.10;2.85;;;24.00;50.10;;;;;;936032;151;27421;-75
2023/06/14 05:25:23;;;;;;;2.87;2.50;;;24.70;49.40;;;;;;933453;150;27394;-75
2023/06/14 05:27:52;;;;;;;3.98;2.58;;;25.30;48.80;;;;;;934494;150;27382;-75
2023/06/14 05:30:16;;;;;;;3.67;2.40;;;26.00;48.30;;;;;;907933;154;27512;-75
2023/06/14 05:32:43;;;;;;;2.95;2.67;;;26.60;47.50;;;;;;919132;153;27351;-74
2023/06/14 05:35:10;;;;;;;4.08;2.45;;;27.40;47.00;;;;;;904004;154;27380;-74
2023/06/14 05:37:36;;;;;;;2.83;2.62;;;28.10;46.00;;;;;;908562;154;27416;-74
2023/06/14 05:40:05;;;;;;;3.05;2.75;;;28.60;45.10;;;;;;907694;154;27410;-74
2023/06/14 05:42:29;;;;;;;7.85;2.95;;;29.20;44.30;;;;;;905920;154;27388;-74
2023/06/14 05:44:56;;;;;;;2.70;2.40;;;29.80;43.70;;;;;;904911;154;27476;-74
2023/06/14 05:47:22;;;;;;;2.40;2.20;;;30.30;43.00;;;;;;904124;154;27416;-74
2023/06/14 05:49:49;;;;;;;2.17;2.05;;;30.70;42.00;;;;;;891852;155;27475;-74
2023/06/14 05:52:16;;;;;;;3.02;2.65;;;31.10;42.00;;;;;;917513;153;27369;-74
2023/06/14 05:54:42;;;;;;;2.62;2.42;;;31.50;41.00;;;;;;916103;153;27376;-75
2023/06/14 05:57:10;;;;;;;4.65;2.50;;;31.90;40.50;;;;;;918407;153;27863;-75
2023/06/14 05:59:36;;;;;;;3.80;2.60;;;32.30;40.00;;;;;;918103;153;27405;-74
2023/06/14 06:02:02;;;;;;;2.85;2.40;;;32.70;39.60;;;;;;915260;154;27379;-74
2023/06/14 06:04:29;;;;;;;2.72;2.47;;;33.10;39.00;;;;;;917036;153;27477;-75
2023/06/14 06:06:55;;;;;;;2.62;2.40;;;33.50;38.40;;;;;;918024;153;27358;-75
2023/06/14 06:09:22;;;;;;;2.85;2.60;;;33.90;37.90;;;;;;918763;153;27385;-74
2023/06/14 06:11:48;;;;;;;2.60;2.40;;;34.20;37.40;;;;;;914714;154;26403;-75
2023/06/14 06:14:15;;;;;;;5.17;2.42;;;34.60;37.00;;;;;;917792;154;26350;-74
2023/06/14 06:16:41;;;;;;;2.83;2.52;;;34.90;36.50;;;;;;916612;154;26273;-74
2023/06/14 06:19:08;;;;;;;4.03;2.70;;;35.20;36.20;;;;;;916577;153;26400;-73
2023/06/14 06:21:35;;;;;;;2.47;2.27;;;35.50;35.90;;;;;;916388;154;26319;-74
2023/06/14 06:24:03;;;;;;;2.67;2.50;;;35.90;35.40;;;;;;918441;153;26305;-73
2023/06/14 06:26:28;;;;;;;2.50;2.30;;;36.30;35.00;;;;;;916604;154;26280;-73
2023/06/14 06:28:55;;;;;;;2.35;2.08;;;36.60;34.60;;;;;;916659;151;26261;-73
2023/06/14 06:31:22;;;;;;;2.90;2.30;;;36.80;33.50;;;;;;915870;154;26342;-73
2023/06/14 06:33:48;;;;;;;2.62;2.42;;;37.10;33.70;;;;;;918339;153;27401;-73
2023/06/14 06:36:14;;;;;;;4.30;2.37;;;37.50;33.30;;;;;;918055;154;26316;-73
2023/06/14 06:38:41;;;;;;;2.40;2.00;;;37.80;32.90;;;;;;915034;153;26270;-73
2023/06/14 06:41:07;;;;;;;2.30;2.10;;;38.00;33.00;;;;;;917851;153;26277;-74
2023/06/14 06:43:34;;;;;;;2.40;2.20;;;38.30;32.00;;;;;;917684;154;26325;-73
2023/06/14 06:46:01;;;;;;;2.58;2.10;;;38.40;31.30;;;;;;912470;151;26381;-73
2023/06/14 06:48:28;;;;;;;2.52;2.02;;;38.50;30.80;;;;;;909384;153;27437;-73
2023/06/14 06:50:54;;;;;;;2.33;2.12;;;38.50;30.50;;;;;;937958;151;26275;-73
2023/06/14 06:53:20;;;;;;;3.02;2.00;;;38.60;30.60;;;;;;935377;151;26211;-74
2023/06/14 06:55:47;;;;;;;2.50;1.82;;;38.70;30.60;;;;;;935653;151;26299;-73
2023/06/14 06:58:13;;;;;;;2.52;2.12;;;38.80;30.40;;;;;;919580;153;26446;-73
2023/06/14 07:00:40;;;;;;;2.35;2.15;;;39.10;30.30;;;;;;914842;154;26284;-73
2023/06/14 07:03:07;;;;;;;2.15;1.95;;;39.40;30.20;;;;;;936336;151;26308;-73
2023/06/14 07:05:33;;;;;;;2.00;1.90;;;39.60;29.80;;;;;;936541;150;26340;-73
2023/06/14 07:08:00;;;;;;;1.80;1.70;;;40.00;29.60;;;;;;937370;151;26283;-73
2023/06/14 07:10:26;;;;;;;4.30;1.82;;;40.20;29.40;;;;;;936216;151;26304;-74
2023/06/14 07:12:53;;;;;;;1.70;1.60;;;40.40;29.00;;;;;;919846;153;26258;-73
2023/06/14 07:15:20;;;;;;;2.67;1.87;;;40.70;28.70;;;;;;933827;150;26266;-73
2023/06/14 07:17:46;;;;;;;1.65;1.55;;;40.80;28.50;;;;;;913911;154;26305;-74
2023/06/14 07:20:13;;;;;;;2.05;1.95;;;40.90;28.10;;;;;;937333;151;26294;-73
2023/06/14 07:22:40;;;;;;;1.80;1.60;;;41.10;28.10;;;;;;920616;153;26286;-73
2023/06/14 07:25:06;;;;;;;1.70;1.60;;;41.20;27.80;;;;;;918914;153;26300;-73
2023/06/14 07:27:33;;;;;;;1.40;1.30;;;41.40;27.60;;;;;;937937;151;26271;-73
2023/06/14 07:29:59;;;;;;;1.92;1.60;;;41.50;27.50;;;;;;919926;153;26450;-73
2023/06/14 07:32:26;;;;;;;1.45;1.27;;;41.70;27.30;;;;;;921353;153;26282;-73
2023/06/14 07:34:52;;;;;;;2.05;1.60;;;41.80;27.00;;;;;;918470;153;26285;-73
2023/06/14 07:37:19;;;;;;;2.52;1.40;;;42.00;26.80;;;;;;906774;154;26351;-74
2023/06/14 07:39:45;;;;;;;2.08;1.32;;;42.10;26.50;;;;;;906792;154;26347;-74
2023/06/14 07:42:12;;;;;;;1.20;1.10;;;42.20;26.30;;;;;;907161;154;26366;-73
2023/06/14 07:44:39;;;;;;;1.55;1.45;;;42.20;25.60;;;;;;904950;154;26309;-74
2023/06/14 07:47:05;;;;;;;1.57;1.45;;;42.10;25.70;;;;;;907490;154;26228;-74
2023/06/14 07:49:32;;;;;;;2.08;1.37;;;42.00;25.50;;;;;;901533;154;26334;-74
2023/06/14 07:51:58;;;;;;;1.00;1.00;;;41.80;25.40;;;;;;891119;155;26389;-74
2023/06/14 07:54:26;;;;;;;1.30;1.20;;;41.70;25.60;;;;;;891397;155;26270;-74
2023/06/14 07:56:52;;;;;;;1.32;1.20;;;41.60;25.80;;;;;;888574;155;26243;-74
2023/06/14 07:59:18;;;;;;;1.60;1.50;;;41.50;25.80;;;;;;889911;155;26407;-74
2023/06/14 08:01:46;;;;;;;1.80;1.70;;;41.60;25.80;;;;;;890863;155;26326;-74
2023/06/14 08:04:11;;;;;;;1.57;1.25;;;41.60;25.90;;;;;;916544;154;26350;-74
2023/06/14 08:06:38;;;;;;;1.47;1.37;;;41.90;26.00;;;;;;918860;154;26222;-74
2023/06/14 08:09:05;;;;;;;1.45;1.35;;;42.20;26.00;;;;;;916142;154;26387;-74
2023/06/14 08:11:31;;;;;;;1.50;1.40;;;42.50;25.60;;;;;;918238;154;26398;-74
2023/06/14 08:13:58;;;;;;;1.45;1.35;;;42.90;25.60;;;;;;918437;154;26350;-74
2023/06/14 08:16:24;;;;;;;1.40;1.30;;;43.10;25.30;;;;;;915899;154;26293;-74
2023/06/14 08:18:51;;;;;;;1.60;1.50;;;43.10;24.60;;;;;;918579;153;26280;-74
2023/06/14 08:21:17;;;;;;;2.00;1.60;;;42.80;24.20;;;;;;920418;152;26282;-73
2023/06/14 08:23:44;;;;;;;1.92;1.60;;;42.40;24.20;;;;;;921227;152;26308;-74
2023/06/14 08:26:11;;;;;;;1.98;1.50;;;42.00;24.50;;;;;;914188;154;26392;-74
2023/06/14 08:28:37;;;;;;;1.55;1.45;;;41.60;24.70;;;;;;917435;151;26324;-74
2023/06/14 08:31:04;;;;;;;1.60;1.50;;;41.40;24.60;;;;;;922568;152;26242;-72
2023/06/14 08:33:32;;;;;;;1.57;1.47;;;40.90;24.60;;;;;;907099;155;26345;-73
2023/06/14 08:35:57;;;;;;;2.98;1.70;;;40.50;24.70;;;;;;915901;153;26326;-73
2023/06/14 08:38:24;;;;;;;3.17;2.00;;;39.90;24.60;;;;;;917572;154;26240;-73
2023/06/14 08:40:51;;;;;;;3.02;1.70;;;39.20;24.50;;;;;;915147;153;26270;-73
2023/06/14 08:43:17;;;;;;;4.40;1.70;;;38.50;25.00;;;;;;917475;154;26369;-73
2023/06/14 08:45:43;;;;;;;3.37;1.60;;;37.90;25.20;;;;;;918573;154;26320;-73
2023/06/14 08:48:11;;;;;;;1.42;1.32;;;37.30;25.60;;;;;;919076;154;27393;-73
2023/06/14 08:50:37;;;;;;;1.50;1.40;;;36.70;25.60;;;;;;917167;154;27400;-73
2023/06/14 08:53:03;;;;;;;2.15;1.95;;;36.10;25.80;;;;;;913447;154;27443;-72
2023/06/14 08:55:30;;;;;;;1.72;1.62;;;35.60;26.10;;;;;;914856;154;27481;-72
2023/06/14 08:57:57;;;;;;;3.55;1.67;;;35.20;26.80;;;;;;911976;154;27401;-73
2023/06/14 09:00:24;;;;;;;1.70;1.60;;;35.10;27.50;;;;;;912674;154;27366;-73
2023/06/14 09:02:53;;;;;;;1.47;1.37;;;35.10;27.40;;;;;;911601;154;27355;-73
2023/06/14 09:05:18;;;;;;;1.65;1.55;;;35.00;27.00;;;;;;924184;152;27330;-73
2023/06/14 09:07:43;;;;;;;2.10;1.57;;;34.80;26.80;;;;;;912121;154;27460;-73
2023/06/14 09:10:12;;;;;;;1.40;1.25;;;34.50;26.70;;;;;;925122;152;27363;-73
2023/06/14 09:12:36;;;;;;;2.02;1.32;;;34.20;26.90;;;;;;907632;154;27463;-72
2023/06/14 09:15:05;;;;;;;2.40;1.30;;;34.00;27.60;;;;;;912615;154;26290;-73
2023/06/14 09:17:29;;;;;;;1.80;1.32;;;34.10;28.30;;;;;;924718;152;26422;-73
2023/06/14 09:19:56;;;;;;;1.20;1.10;;;34.40;28.70;;;;;;907172;156;26319;-73
2023/06/14 09:22:22;;;;;;;2.22;1.55;;;34.80;28.30;;;;;;925405;152;27339;-73
2023/06/14 09:24:49;;;;;;;1.40;1.30;;;34.90;27.60;;;;;;913953;154;27491;-73
2023/06/14 09:27:15;;;;;;;2.15;1.47;;;34.90;27.20;;;;;;914934;154;27396;-72
2023/06/14 09:29:42;;;;;;;1.57;1.10;;;34.70;27.00;;;;;;909569;155;27403;-73
2023/06/14 09:32:09;;;;;;;1.70;1.47;;;34.40;27.10;;;;;;908612;155;27319;-72
2023/06/14 09:34:35;;;;;;;2.47;1.20;;;34.10;27.00;;;;;;898661;155;27410;-72
2023/06/14 09:37:02;;;;;;;1.82;1.50;;;34.00;27.20;;;;;;910342;155;27441;-72
2023/06/14 09:39:28;;;;;;;1.02;1.02;;;33.80;27.70;;;;;;891072;156;27473;-73
2023/06/14 09:41:55;;;;;;;1.07;1.07;;;33.80;27.80;;;;;;891700;156;27433;-73
2023/06/14 09:44:22;;;;;;;1.40;1.12;;;34.00;27.70;;;;;;893883;156;27366;-72
2023/06/14 09:46:48;;;;;;;1.15;1.02;;;34.10;27.90;;;;;;913129;154;27309;-73
2023/06/14 09:49:15;;;;;;;1.70;1.17;;;34.20;27.70;;;;;;914314;154;27481;-73
2023/06/14 09:51:44;;;;;;;1.00;1.00;;;34.40;27.60;;;;;;915489;153;27428;-73
2023/06/14 09:54:11;;;;;;;2.15;1.20;;;34.50;27.50;;;;;;916016;154;26246;-73
2023/06/14 09:56:40;;;;;;;1.50;0.95;;;34.50;27.70;;;;;;913327;154;27494;-73
2023/06/14 09:59:07;;;;;;;2.75;1.30;;;34.70;27.90;;;;;;894168;156;26325;-73
2023/06/14 10:01:33;;;;;;;0.90;0.90;;;34.90;27.80;;;;;;925851;152;26387;-72
2023/06/14 10:04:06;;;;;;;0.93;0.93;;;35.20;27.90;;;;;;914068;154;26270;-73
2023/06/14 10:06:32;;;;;;;0.88;0.88;;;35.40;27.70;;;;;;912626;154;26321;-73
2023/06/14 10:09:02;;;;;;;1.20;1.10;;;35.70;27.60;;;;;;924030;152;26273;-72
2023/06/14 10:11:29;;;;;;;1.00;1.00;;;36.00;27.50;;;;;;925065;152;26324;-72
2023/06/14 10:13:55;;;;;;;1.17;1.07;;;36.30;27.30;;;;;;925176;152;26226;-72
2023/06/14 10:16:43;;;;;;;1.42;1.32;;;36.60;26.80;;;;;;901520;156;26377;-73
2023/06/14 10:19:12;;;;;;;1.20;1.10;;;36.70;26.50;;;;;;900071;155;26417;-73
2023/06/14 10:21:42;;;;;;;2.55;1.27;;;36.70;26.20;;;;;;892231;156;27439;-73
2023/06/14 10:24:08;;;;;;;1.37;1.27;;;36.60;26.20;;;;;;891498;156;27476;-79
2023/06/14 10:26:35;;;;;;;1.50;1.40;;;36.30;25.90;;;;;;913165;154;27376;-79
2023/06/14 10:29:07;;;;;;;1.30;1.20;;;36.10;26.00;;;;;;912574;154;27406;-79
2023/06/14 10:31:40;;;;;;;1.70;1.57;;;35.80;26.00;;;;;;913681;154;27501;-79
2023/06/14 10:34:06;;;;;;;1.62;1.35;;;35.60;26.10;;;;;;914294;154;27348;-79
2023/06/14 10:36:34;;;;;;;3.95;1.75;;;35.40;26.20;;;;;;913659;154;27332;-79
2023/06/14 10:39:09;;;;;;;3.12;1.75;;;35.00;26.00;;;;;;912744;154;27439;-79
2023/06/14 10:41:35;;;;;;;1.42;1.32;;;34.70;26.10;;;;;;924654;152;27459;-79
2023/06/14 10:44:14;;;;;;;2.15;1.40;;;34.30;26.30;;;;;;907275;155;27490;-79
2023/06/14 10:46:40;;;;;;;3.98;1.77;;;33.80;26.40;;;;;;923924;152;27391;-79
2023/06/14 10:49:09;;;;;;;1.62;1.50;;;33.40;26.70;;;;;;906076;156;27375;-78
2023/06/14 10:51:57;;;;;;;3.02;1.80;;;33.10;26.90;;;;;;918973;153;27884;-78
2023/06/14 10:54:09;;;;;;;2.30;2.10;;;32.70;27.10;;;;;;918790;153;27435;-78
2023/06/14 10:56:35;;;;;;;2.30;1.80;;;32.30;27.20;;;;;;923738;153;27372;-78
2023/06/14 10:59:02;;;;;;;1.98;1.82;;;32.00;27.40;;;;;;924906;152;28103;-78
2023/06/14 11:01:37;;;;;;;2.50;2.05;;;31.60;27.70;;;;;;925759;152;27477;-78
2023/06/14 11:04:10;;;;;;;1.80;1.70;;;31.30;27.80;;;;;;922111;153;27409;-78
2023/06/14 11:06:39;;;;;;;6.25;2.50;;;31.00;28.00;;;;;;922048;152;27400;-79
2023/06/14 11:09:08;;;;;;;2.35;2.15;;;30.70;28.40;;;;;;919683;153;27396;-78
2023/06/14 11:11:35;;;;;;;2.33;2.12;;;30.50;28.50;;;;;;922665;152;27500;-78
2023/06/14 11:14:02;;;;;;;2.42;2.15;;;30.40;28.70;;;;;;924409;153;27379;-78
2023/06/14 11:16:28;;;;;;;2.33;2.02;;;30.20;29.30;;;;;;922946;153;27440;-78
2023/06/14 11:18:55;;;;;;;2.42;2.00;;;30.10;28.90;;;;;;925280;153;27373;-79
2023/06/14 11:21:21;;;;;;;1.87;1.77;;;30.00;28.80;;;;;;924091;153;27395;-79
2023/06/14 11:23:51;;;;;;;3.00;2.00;;;29.80;29.00;;;;;;925028;152;27426;-79
2023/06/14 11:26:17;;;;;;;3.92;2.10;;;29.60;29.20;;;;;;921242;152;27354;-79
2023/06/14 11:28:44;;;;;;;1.80;1.70;;;29.50;29.50;;;;;;922804;153;27460;-79
2023/06/14 11:31:10;;;;;;;1.95;1.85;;;29.50;29.70;;;;;;925111;153;27408;-79
2023/06/14 11:33:37;;;;;;;1.98;1.87;;;29.50;29.90;;;;;;923458;153;27409;-79
2023/06/14 11:36:05;;;;;;;1.92;1.80;;;29.50;30.00;;;;;;923836;152;28355;-79
2023/06/14 11:38:30;;;;;;;1.90;1.80;;;29.50;30.00;;;;;;921283;152;27343;-79
2023/06/14 11:41:00;;;;;;;2.37;2.00;;;29.60;30.00;;;;;;921992;153;27397;-79
2023/06/14 11:43:26;;;;;;;1.70;1.60;;;29.70;30.00;;;;;;923130;153;27492;-79
2023/06/14 11:45:53;;;;;;;1.82;1.72;;;29.80;29.90;;;;;;922746;153;27385;-78
2023/06/14 11:48:19;;;;;;;2.60;1.85;;;29.90;30.00;;;;;;924238;152;27449;-79
2023/06/14 11:50:46;;;;;;;1.98;1.87;;;29.90;30.00;;;;;;923126;152;27344;-79
2023/06/14 11:53:13;;;;;;;2.75;1.95;;;30.00;30.00;;;;;;924556;152;27450;-78
2023/06/14 11:55:40;;;;;;;3.10;1.70;;;30.10;29.90;;;;;;911796;154;27373;-79
2023/06/14 11:58:06;;;;;;;1.62;1.52;;;30.20;30.00;;;;;;917220;154;27361;-78
2023/06/14 12:00:32;;;;;;;1.82;1.67;;;30.30;29.80;;;;;;927051;152;27324;-78
2023/06/14 12:02:59;;;;;;;1.72;1.62;;;30.40;29.50;;;;;;910945;155;27368;-78
2023/06/14 12:05:26;;;;;;;1.82;1.72;;;30.40;29.30;;;;;;912102;155;27397;-79
2023/06/14 12:07:53;;;;;;;1.25;1.22;;;30.50;29.50;;;;;;907940;154;27497;-78
2023/06/14 12:10:19;;;;;;;1.67;1.57;;;30.40;29.40;;;;;;914633;154;27477;-78
2023/06/14 12:12:45;;;;;;;1.70;1.60;;;30.40;29.40;;;;;;917341;154;27407;-78
2023/06/14 12:15:12;;;;;;;1.80;1.70;;;30.40;29.40;;;;;;914669;154;27376;-78
2023/06/14 12:17:41;;;;;;;3.60;1.70;;;30.30;29.40;;;;;;917744;154;27372;-78
2023/06/14 12:20:15;;;;;;;1.50;1.40;;;30.20;29.30;;;;;;915252;154;27411;-78
2023/06/14 12:22:49;;;;;;;1.25;1.25;;;30.10;29.40;;;;;;914947;154;27438;-78
2023/06/14 12:25:34;;;;;;;2.60;1.47;;;29.90;29.30;;;;;;897851;155;27400;-78
2023/06/14 12:28:00;;;;;;;1.85;1.70;;;29.80;29.40;;;;;;926096;150;27388;-78
2023/06/14 12:30:27;;;;;;;2.10;1.67;;;29.70;29.40;;;;;;897654;155;27361;-78
2023/06/14 12:32:53;;;;;;;1.90;1.80;;;29.60;29.40;;;;;;927387;152;27406;-79
2023/06/14 12:35:20;;;;;;;3.87;1.77;;;29.50;29.60;;;;;;917088;154;27367;-79
2023/06/14 12:37:46;;;;;;;2.02;1.80;;;29.50;29.80;;;;;;915629;154;27392;-79
2023/06/14 12:40:13;;;;;;;1.77;1.67;;;29.50;30.00;;;;;;915615;154;27407;-78
2023/06/14 12:42:39;;;;;;;2.15;1.92;;;29.60;30.00;;;;;;914801;154;27369;-78
2023/06/14 12:45:06;;;;;;;1.82;1.72;;;29.60;30.00;;;;;;913358;154;27462;-78
2023/06/14 12:47:33;;;;;;;2.33;1.60;;;29.70;30.00;;;;;;912838;155;27379;-78